Time;durP1;ratioP1;P1;durP2;ratioP2;P2;SDS_P1;SDS_P2;PMS_P1;PMS_P2;Temp;Humidity;BMP_temperature;BMP_pressure;BME280_temperature;BME280_humidity;BME280_pressure;Samples;Min_cycle;Max_cycle;Signal;HPM_P1;HPM_P2
2023/01/18 00:01:57;;;;;;;16.63;9.55;;;2.20;99.90;;;;;;5067313;28;20534;-72
2023/01/18 00:04:23;;;;;;;18.10;10.88;;;2.20;99.90;;;;;;5066640;28;20039;-72
2023/01/18 00:06:48;;;;;;;15.63;10.15;;;2.30;99.90;;;;;;5072239;28;20048;-72
2023/01/18 00:09:14;;;;;;;17.23;10.10;;;2.40;99.90;;;;;;5074909;28;20028;-73
2023/01/18 00:11:39;;;;;;;16.85;9.93;;;2.50;99.90;;;;;;5070551;28;20477;-72
2023/01/18 00:14:06;;;;;;;16.23;10.02;;;2.40;99.90;;;;;;5096211;28;20023;-72
2023/01/18 00:16:31;;;;;;;15.07;9.57;;;2.40;99.90;;;;;;5087816;28;20039;-72
2023/01/18 00:18:58;;;;;;;14.18;8.90;;;2.30;99.90;;;;;;5091970;28;20376;-72
2023/01/18 00:21:26;;;;;;;16.38;10.18;;;2.30;99.90;;;;;;5083287;28;20074;-72
2023/01/18 00:23:53;;;;;;;14.93;9.38;;;2.40;99.90;;;;;;5074968;28;20024;-72
2023/01/18 00:26:18;;;;;;;15.75;8.98;;;2.40;99.90;;;;;;5076000;28;20494;-72
2023/01/18 00:28:44;;;;;;;15.05;9.52;;;2.40;99.90;;;;;;5081471;28;20067;-72
2023/01/18 00:31:16;;;;;;;13.13;8.63;;;2.30;99.90;;;;;;5084252;28;20031;-72
2023/01/18 00:33:46;;;;;;;15.98;9.63;;;2.30;99.90;;;;;;5081368;28;20035;-72
2023/01/18 00:36:13;;;;;;;15.32;9.05;;;2.40;99.90;;;;;;5082851;28;20486;-72
2023/01/18 00:38:39;;;;;;;13.82;8.63;;;2.50;99.90;;;;;;5097815;28;20409;-72
2023/01/18 00:41:05;;;;;;;14.35;9.45;;;2.50;99.90;;;;;;5103397;28;20038;-72
2023/01/18 00:43:40;;;;;;;13.70;9.10;;;2.40;99.90;;;;;;5103115;28;20040;-72
2023/01/18 00:46:13;;;;;;;;;;;2.30;99.90;;;;;;5097870;28;20049;-72
2023/01/18 00:48:40;;;;;;;12.95;7.90;;;2.30;99.90;;;;;;5100458;28;19915;-72
2023/01/18 00:51:07;;;;;;;12.07;7.65;;;2.20;99.90;;;;;;5094711;28;20027;-72
2023/01/18 00:53:34;;;;;;;14.95;9.27;;;2.30;99.90;;;;;;5100935;28;20133;-72
2023/01/18 00:55:59;;;;;;;14.75;9.85;;;2.40;99.90;;;;;;5098499;28;20027;-72
2023/01/18 00:58:25;;;;;;;20.88;12.30;;;2.30;99.90;;;;;;5094883;27;20169;-72
2023/01/18 01:00:52;;;;;;;22.38;13.93;;;2.30;99.90;;;;;;5110264;28;20537;-72
2023/01/18 01:03:19;;;;;;;22.95;13.90;;;2.40;99.90;;;;;;5111441;28;20493;-72
2023/01/18 01:08:34;;;;;;;22.98;13.48;;;2.40;99.90;;;;;;5053340;27;20032;-72
2023/01/18 01:11:08;;;;;;;21.83;12.77;;;2.40;99.90;;;;;;5097821;28;20031;-72
2023/01/18 01:27:16;;;;;;;22.07;14.13;;;2.30;99.90;;;;;;5096659;28;20119;-72
2023/01/18 01:29:42;;;;;;;21.77;13.85;;;2.30;99.90;;;;;;5102056;28;20079;-72
2023/01/18 01:32:08;;;;;;;22.48;12.68;;;2.30;99.90;;;;;;5104837;28;20020;-72
2023/01/18 01:34:34;;;;;;;24.88;14.82;;;2.40;99.90;;;;;;5091167;27;20024;-72
2023/01/18 01:37:01;;;;;;;25.20;13.85;;;2.40;99.90;;;;;;5090366;28;20044;-72
2023/01/18 01:39:27;;;;;;;20.55;13.75;;;2.40;99.90;;;;;;5103361;28;20071;-72
2023/01/18 01:41:53;;;;;;;23.63;14.57;;;2.40;99.90;;;;;;5094291;28;20040;-72
2023/01/18 01:44:26;;;;;;;21.60;13.65;;;2.20;99.90;;;;;;5096017;27;20042;-72
2023/01/18 01:47:03;;;;;;;23.27;14.35;;;2.20;99.90;;;;;;5092749;28;20504;-72
2023/01/18 01:49:41;;;;;;;21.77;13.43;;;2.30;99.90;;;;;;5110997;28;20039;-72
2023/01/18 01:52:10;;;;;;;21.40;12.63;;;2.20;99.90;;;;;;5102029;28;20038;-72
2023/01/18 01:54:41;;;;;;;19.63;12.52;;;2.30;99.90;;;;;;5107363;28;20030;-72
2023/01/18 01:57:14;;;;;;;20.25;13.35;;;2.10;99.90;;;;;;5101600;28;20477;-72
2023/01/18 01:59:44;;;;;;;22.52;13.85;;;2.00;99.90;;;;;;5101734;28;20390;-72
2023/01/18 02:02:10;;;;;;;19.88;13.07;;;2.00;99.90;;;;;;5096078;28;20051;-72
2023/01/18 02:04:37;;;;;;;22.48;14.65;;;2.10;99.90;;;;;;5089628;28;20058;-72
2023/01/18 02:07:02;;;;;;;21.92;13.23;;;2.10;99.90;;;;;;5091428;28;20028;-72
2023/01/18 02:09:28;;;;;;;20.58;13.32;;;2.10;99.90;;;;;;5109916;28;20598;-72
2023/01/18 02:11:54;;;;;;;24.50;14.68;;;2.10;99.90;;;;;;5096043;28;20028;-72
2023/01/18 02:14:23;;;;;;;22.58;13.20;;;2.20;99.90;;;;;;5101437;28;20118;-72
2023/01/18 02:17:03;;;;;;;19.60;13.10;;;2.10;99.90;;;;;;5105349;28;20039;-72
2023/01/18 02:19:58;;;;;;;23.25;13.75;;;2.10;99.90;;;;;;5100144;28;20031;-72
2023/01/18 02:22:37;;;;;;;26.00;13.53;;;2.20;99.90;;;;;;5081774;28;20459;-72
2023/01/18 02:25:27;;;;;;;23.42;13.77;;;2.30;99.90;;;;;;5092268;28;20282;-72
2023/01/18 02:28:02;;;;;;;22.08;13.55;;;2.20;99.90;;;;;;5099417;28;20480;-72
2023/01/18 02:30:42;;;;;;;22.17;13.68;;;2.30;99.90;;;;;;5099758;28;20077;-72
2023/01/18 02:33:16;;;;;;;23.15;12.88;;;2.30;99.90;;;;;;5099630;28;20032;-72
2023/01/18 02:35:54;;;;;;;;;;;2.40;99.90;;;;;;5097572;28;20490;-72
2023/01/18 02:38:26;;;;;;;24.48;13.07;;;2.40;99.90;;;;;;5101623;28;19951;-72
2023/01/18 02:41:07;;;;;;;23.17;14.85;;;2.30;99.90;;;;;;5091964;28;20115;-72
2023/01/18 02:46:29;;;;;;;23.63;14.50;;;2.20;99.90;;;;;;5099657;28;20058;-72
2023/01/18 02:48:57;;;;;;;24.05;14.25;;;2.30;99.90;;;;;;5106654;28;20016;-73
2023/01/18 02:51:23;;;;;;;22.75;13.93;;;2.30;99.90;;;;;;5101373;28;20059;-73
2023/01/18 02:53:50;;;;;;;20.98;13.40;;;2.40;99.90;;;;;;5103859;28;20115;-72
2023/01/18 02:56:28;;;;;;;25.75;14.38;;;2.30;99.90;;;;;;5095737;28;20039;-73
2023/01/18 02:59:19;;;;;;;24.10;13.75;;;2.10;99.90;;;;;;5090860;28;20066;-72
2023/01/18 03:02:01;;;;;;;22.38;14.15;;;2.10;99.90;;;;;;5099946;28;20023;-73
2023/01/18 03:04:38;;;;;;;23.35;14.18;;;2.10;99.90;;;;;;5091314;28;20028;-73
2023/01/18 03:07:12;;;;;;;24.65;14.98;;;2.20;99.90;;;;;;5105504;28;20027;-73
2023/01/18 03:09:40;;;;;;;26.70;14.57;;;2.30;99.90;;;;;;5099507;28;20038;-73
2023/01/18 03:12:05;;;;;;;23.38;14.27;;;2.40;99.90;;;;;;5093813;28;20486;-72
2023/01/18 03:14:41;;;;;;;23.50;13.55;;;2.30;99.90;;;;;;5100962;28;20030;-72
2023/01/18 03:17:19;;;;;;;24.33;13.95;;;2.30;99.90;;;;;;5107647;28;20062;-72
2023/01/18 03:20:03;;;;;;;20.40;13.55;;;2.30;99.90;;;;;;5107365;28;20035;-72
2023/01/18 03:25:28;;;;;;;20.98;13.32;;;2.30;99.90;;;;;;5099988;28;20292;-73
2023/01/18 03:33:44;;;;;;;;;;;2.30;99.90;;;;;;5093516;28;20093;-72
2023/01/18 03:36:24;;;;;;;19.33;11.48;;;2.30;99.90;;;;;;5099458;28;19916;-72
2023/01/18 03:38:56;;;;;;;20.38;11.52;;;2.30;99.90;;;;;;5095142;28;20031;-72
2023/01/18 03:41:26;;;;;;;20.60;12.20;;;2.30;99.90;;;;;;5104724;28;20058;-72
2023/01/18 03:43:55;;;;;;;19.83;12.15;;;2.30;99.90;;;;;;5102242;28;20106;-72
2023/01/18 03:46:25;;;;;;;19.75;11.43;;;2.30;99.90;;;;;;5105621;28;20384;-72
2023/01/18 03:48:50;;;;;;;19.50;11.10;;;2.30;99.90;;;;;;5102907;28;20035;-72
2023/01/18 03:51:29;;;;;;;15.20;9.98;;;2.30;99.90;;;;;;5098802;28;20024;-72
2023/01/18 03:54:04;;;;;;;15.05;9.77;;;2.30;99.90;;;;;;5107667;28;20034;-72
2023/01/18 03:56:41;;;;;;;15.15;9.13;;;2.40;99.90;;;;;;5102677;28;20109;-72
2023/01/18 03:59:07;;;;;;;16.70;10.40;;;2.50;99.90;;;;;;5097025;28;20551;-72
2023/01/18 04:01:33;;;;;;;15.35;10.18;;;2.60;99.90;;;;;;5098909;28;20081;-72
2023/01/18 04:03:59;;;;;;;16.40;10.00;;;2.60;99.90;;;;;;5091172;28;20036;-73
2023/01/18 04:06:25;;;;;;;15.32;9.60;;;2.50;99.90;;;;;;5103936;28;20028;-72
2023/01/18 04:08:51;;;;;;;14.90;8.55;;;2.50;99.90;;;;;;5095883;28;20047;-72
2023/01/18 04:11:17;;;;;;;14.65;8.57;;;2.50;99.90;;;;;;5101046;28;20028;-72
2023/01/18 04:13:43;;;;;;;16.02;9.15;;;2.40;99.90;;;;;;5089452;28;20028;-73
2023/01/18 04:16:09;;;;;;;12.90;8.98;;;2.50;99.90;;;;;;5093525;28;20059;-73
2023/01/18 04:18:35;;;;;;;16.02;9.63;;;2.50;99.90;;;;;;5091903;28;20441;-73
2023/01/18 04:21:01;;;;;;;16.15;9.75;;;2.50;99.90;;;;;;5088680;27;20032;-72
2023/01/18 04:23:27;;;;;;;16.15;10.23;;;2.50;99.90;;;;;;5106377;28;20063;-72
2023/01/18 04:25:52;;;;;;;14.95;9.30;;;2.50;99.90;;;;;;5099129;28;20053;-72
2023/01/18 04:28:24;;;;;;;14.75;9.85;;;2.60;99.90;;;;;;5095469;28;20036;-72
2023/01/18 04:30:54;;;;;;;13.82;8.25;;;2.40;99.90;;;;;;5088320;28;20024;-72
2023/01/18 04:33:21;;;;;;;14.38;8.18;;;2.40;99.90;;;;;;5094225;28;20066;-72
2023/01/18 04:35:48;;;;;;;14.48;8.77;;;2.30;99.90;;;;;;5094645;28;20591;-72
2023/01/18 04:38:14;;;;;;;14.18;8.68;;;2.30;99.90;;;;;;5097017;28;20039;-72
2023/01/18 04:40:40;;;;;;;13.68;8.18;;;2.30;99.90;;;;;;5086487;28;20032;-72
2023/01/18 04:43:06;;;;;;;13.43;8.27;;;2.30;99.90;;;;;;5095076;28;20028;-73
2023/01/18 04:45:31;;;;;;;13.68;8.10;;;2.40;99.90;;;;;;5100678;28;20038;-72
2023/01/18 04:47:57;;;;;;;13.20;8.25;;;2.50;99.90;;;;;;5086782;27;20042;-72
2023/01/18 04:50:23;;;;;;;13.27;8.55;;;2.40;99.90;;;;;;5088125;28;20032;-72
2023/01/18 04:52:49;;;;;;;14.00;7.78;;;2.40;99.90;;;;;;5086861;28;20039;-72
2023/01/18 04:55:14;;;;;;;15.10;8.63;;;2.50;99.90;;;;;;5089650;28;20374;-72
2023/01/18 04:57:44;;;;;;;14.48;9.63;;;2.60;99.90;;;;;;5087510;28;20093;-72
2023/01/18 05:00:13;;;;;;;17.35;10.35;;;2.50;99.90;;;;;;5092190;28;20469;-72
2023/01/18 05:02:38;;;;;;;17.10;10.65;;;2.50;99.90;;;;;;5096353;27;20490;-72
2023/01/18 05:05:06;;;;;;;20.17;12.25;;;2.50;99.90;;;;;;5095643;28;20023;-72
2023/01/18 05:07:35;;;;;;;17.38;12.25;;;2.50;99.90;;;;;;5093394;28;20020;-72
2023/01/18 05:10:01;;;;;;;18.85;11.18;;;2.40;99.90;;;;;;5089160;28;20532;-72
2023/01/18 05:12:28;;;;;;;15.88;10.25;;;2.40;99.90;;;;;;5092724;28;20031;-72
2023/01/18 05:14:54;;;;;;;16.73;11.00;;;2.30;99.90;;;;;;5085909;27;20027;-72
2023/01/18 05:17:20;;;;;;;21.05;12.35;;;2.30;99.90;;;;;;5076441;28;20420;-72
2023/01/18 05:19:47;;;;;;;19.08;12.30;;;2.30;99.90;;;;;;5084205;28;20051;-72
2023/01/18 05:22:13;;;;;;;16.63;10.13;;;2.30;99.90;;;;;;5098352;28;20043;-72
2023/01/18 05:24:38;;;;;;;15.85;9.80;;;2.10;99.90;;;;;;5086444;28;20036;-72
2023/01/18 05:27:04;;;;;;;18.73;11.65;;;1.90;99.90;;;;;;5096751;28;20118;-72
2023/01/18 05:29:30;;;;;;;17.70;11.55;;;1.80;99.90;;;;;;5091548;28;20371;-72
2023/01/18 05:31:56;;;;;;;21.00;13.02;;;1.70;99.90;;;;;;5094088;28;20028;-72
2023/01/18 05:34:21;;;;;;;20.17;12.13;;;1.70;99.90;;;;;;5089745;28;20084;-72
2023/01/18 05:36:47;;;;;;;17.80;8.93;;;1.70;99.90;;;;;;5091280;28;20077;-72
2023/01/18 05:39:13;;;;;;;15.02;8.55;;;1.60;99.90;;;;;;5084666;28;20081;-72
2023/01/18 05:41:39;;;;;;;13.32;7.72;;;1.70;99.90;;;;;;5083312;28;20125;-72
2023/01/18 05:44:05;;;;;;;13.13;8.23;;;1.60;99.90;;;;;;5093697;28;20053;-72
2023/01/18 05:46:31;;;;;;;14.20;9.45;;;1.70;99.90;;;;;;5083898;27;20032;-72
2023/01/18 05:48:57;;;;;;;12.02;8.05;;;1.90;99.90;;;;;;5097538;28;20032;-72
2023/01/18 05:51:24;;;;;;;12.35;6.88;;;1.90;99.90;;;;;;5090094;28;20409;-72
2023/01/18 05:53:49;;;;;;;13.73;7.22;;;1.90;99.90;;;;;;5087473;28;20606;-72
2023/01/18 05:56:16;;;;;;;11.60;7.50;;;1.80;99.90;;;;;;5092787;28;20026;-72
2023/01/18 05:58:41;;;;;;;12.73;7.00;;;1.80;99.90;;;;;;5087863;28;20058;-72
2023/01/18 06:01:07;;;;;;;12.43;7.15;;;1.80;99.90;;;;;;5084903;28;20033;-72
2023/01/18 06:03:33;;;;;;;13.23;8.05;;;1.70;99.90;;;;;;5100904;28;20020;-72
2023/01/18 06:06:00;;;;;;;11.30;7.45;;;1.60;99.90;;;;;;5085887;28;20130;-72
2023/01/18 06:08:26;;;;;;;12.30;7.13;;;1.60;99.90;;;;;;5098756;28;20471;-72
2023/01/18 06:10:57;;;;;;;10.85;7.03;;;1.60;99.90;;;;;;5095700;28;20040;-72
2023/01/18 06:13:26;;;;;;;13.93;9.07;;;1.40;99.90;;;;;;5103243;28;20024;-72
2023/01/18 06:15:53;;;;;;;11.23;8.07;;;1.40;99.90;;;;;;5090568;28;20024;-72
2023/01/18 06:18:20;;;;;;;13.65;8.55;;;1.40;99.90;;;;;;5088276;28;20361;-72
2023/01/18 06:20:45;;;;;;;12.60;7.20;;;1.40;99.90;;;;;;5083660;28;20479;-72
2023/01/18 06:23:11;;;;;;;14.98;7.60;;;1.30;99.90;;;;;;5099290;28;20028;-72
2023/01/18 06:25:37;;;;;;;14.55;8.40;;;1.20;99.90;;;;;;5090834;28;20031;-74
2023/01/18 06:28:04;;;;;;;15.38;8.77;;;1.20;99.90;;;;;;5095622;28;20020;-72
2023/01/18 06:30:30;;;;;;;13.18;8.18;;;1.20;99.90;;;;;;5094112;28;20102;-70
2023/01/18 06:32:56;;;;;;;16.00;8.60;;;1.20;99.90;;;;;;5088390;28;20082;-71
2023/01/18 06:35:22;;;;;;;14.63;8.63;;;1.40;99.90;;;;;;5090288;28;20541;-70
2023/01/18 06:37:48;;;;;;;14.95;9.18;;;1.50;99.90;;;;;;5095336;28;20028;-71
2023/01/18 06:40:14;;;;;;;19.10;11.05;;;1.60;99.90;;;;;;5089498;28;20024;-71
2023/01/18 06:42:40;;;;;;;15.18;8.63;;;1.60;99.90;;;;;;5081331;28;20048;-71
2023/01/18 06:45:07;;;;;;;24.25;13.20;;;1.50;99.90;;;;;;5082017;28;20551;-70
2023/01/18 06:47:33;;;;;;;20.35;12.82;;;1.70;99.90;;;;;;5084770;28;20085;-71
2023/01/18 06:49:59;;;;;;;23.48;12.43;;;1.70;99.90;;;;;;5085301;28;20027;-70
2023/01/18 06:52:24;;;;;;;14.70;8.38;;;1.60;99.90;;;;;;5095920;28;20039;-70
2023/01/18 06:54:50;;;;;;;16.85;9.77;;;1.40;99.90;;;;;;5096602;28;20034;-71
2023/01/18 06:57:16;;;;;;;15.30;9.25;;;1.50;99.90;;;;;;5101963;28;20034;-71
2023/01/18 06:59:41;;;;;;;12.55;7.30;;;1.40;99.90;;;;;;5081973;28;20032;-70
2023/01/18 07:02:11;;;;;;;14.77;8.68;;;1.50;99.90;;;;;;5087733;28;20090;-70
2023/01/18 07:04:42;;;;;;;14.77;8.48;;;1.50;99.90;;;;;;5092589;28;20055;-71
2023/01/18 07:07:08;;;;;;;16.90;9.85;;;1.60;99.90;;;;;;5094076;28;20028;-70
2023/01/18 07:09:34;;;;;;;16.40;9.82;;;1.70;99.90;;;;;;5085058;28;20122;-70
2023/01/18 07:12:00;;;;;;;17.42;10.13;;;1.80;99.90;;;;;;5084693;28;20381;-70
2023/01/18 07:14:25;;;;;;;16.60;10.10;;;1.80;99.90;;;;;;5089840;28;20035;-71
2023/01/18 07:16:51;;;;;;;12.73;7.85;;;1.80;99.90;;;;;;5089084;28;20489;-70
2023/01/18 07:19:16;;;;;;;13.93;8.00;;;1.80;99.90;;;;;;5093908;28;20979;-70
2023/01/18 07:21:42;;;;;;;15.52;7.90;;;1.90;99.90;;;;;;5084246;28;20077;-70
2023/01/18 07:24:08;;;;;;;14.43;8.68;;;1.90;99.90;;;;;;5085028;28;20032;-70
2023/01/18 07:26:33;;;;;;;15.25;7.68;;;1.90;99.90;;;;;;5096568;28;20057;-70
2023/01/18 07:29:00;;;;;;;12.65;6.50;;;1.90;99.90;;;;;;5086262;28;20650;-70
2023/01/18 07:31:26;;;;;;;13.55;7.07;;;1.90;99.90;;;;;;5083122;28;20028;-70
2023/01/18 07:33:52;;;;;;;14.93;8.38;;;1.80;99.90;;;;;;5088780;28;20109;-70
2023/01/18 07:36:19;;;;;;;16.92;10.32;;;1.80;99.90;;;;;;5098323;28;21310;-71
2023/01/18 07:38:46;;;;;;;17.17;10.65;;;1.70;99.90;;;;;;5095404;28;20088;-70
2023/01/18 07:41:14;;;;;;;20.55;11.50;;;1.70;99.90;;;;;;5093488;28;20035;-70
2023/01/18 07:43:41;;;;;;;17.10;9.07;;;1.70;99.90;;;;;;5086809;28;23630;-70
2023/01/18 07:46:10;;;;;;;14.15;8.57;;;1.70;99.90;;;;;;5092874;28;20036;-70
2023/01/18 07:48:35;;;;;;;13.88;8.35;;;1.50;99.90;;;;;;5093632;28;20036;-70
2023/01/18 07:51:03;;;;;;;10.13;6.65;;;1.40;99.90;;;;;;5100652;28;20107;-70
2023/01/18 07:53:31;;;;;;;11.73;6.65;;;1.40;99.90;;;;;;5094113;28;20034;-70
2023/01/18 07:56:01;;;;;;;11.95;7.10;;;1.30;99.90;;;;;;5081904;28;20102;-70
2023/01/18 07:58:27;;;;;;;12.18;6.40;;;1.50;99.90;;;;;;5088016;28;20077;-70
2023/01/18 08:00:53;;;;;;;9.60;6.60;;;1.60;99.90;;;;;;5080083;28;20036;-69
2023/01/18 08:03:19;;;;;;;11.05;5.90;;;1.80;99.90;;;;;;5089105;28;20032;-69
2023/01/18 08:05:46;;;;;;;14.13;8.52;;;1.80;99.90;;;;;;5084612;28;20630;-69
2023/01/18 08:08:14;;;;;;;12.43;7.18;;;1.80;99.90;;;;;;5089775;28;20028;-69
2023/01/18 08:10:40;;;;;;;14.93;9.65;;;1.90;99.90;;;;;;5087645;28;20032;-69
2023/01/18 08:13:09;;;;;;;16.50;10.02;;;2.00;99.90;;;;;;5083743;28;20038;-69
2023/01/18 08:15:37;;;;;;;15.32;9.07;;;2.10;99.90;;;;;;5087776;28;25228;-70
2023/01/18 08:18:04;;;;;;;15.55;9.05;;;2.10;99.90;;;;;;5099579;28;20058;-70
2023/01/18 08:20:30;;;;;;;23.10;11.07;;;2.10;99.90;;;;;;5099047;28;20032;-70
2023/01/18 08:22:57;;;;;;;15.48;8.75;;;2.20;99.90;;;;;;5101515;28;20035;-69
2023/01/18 08:25:28;;;;;;;16.38;9.48;;;2.00;99.90;;;;;;5086662;28;20462;-70
2023/01/18 08:27:58;;;;;;;18.15;9.85;;;2.20;99.90;;;;;;5099526;28;20657;-70
2023/01/18 08:30:26;;;;;;;15.75;8.63;;;2.20;99.90;;;;;;5094926;28;20032;-70
2023/01/18 08:32:57;;;;;;;17.88;9.48;;;2.30;99.90;;;;;;5095167;28;20031;-69
2023/01/18 08:35:23;;;;;;;16.73;9.98;;;2.30;99.90;;;;;;5087630;28;20039;-70
2023/01/18 08:37:49;;;;;;;21.88;13.43;;;2.40;99.90;;;;;;5094304;28;20043;-69
2023/01/18 08:40:15;;;;;;;21.70;13.13;;;2.40;99.90;;;;;;5098685;28;20409;-69
2023/01/18 08:42:40;;;;;;;20.35;13.50;;;2.30;99.90;;;;;;5096679;28;20027;-70
2023/01/18 08:45:07;;;;;;;21.63;13.05;;;2.20;99.90;;;;;;5094061;28;20028;-70
2023/01/18 08:47:32;;;;;;;18.83;11.27;;;2.10;99.90;;;;;;5094391;28;20093;-69
2023/01/18 08:49:58;;;;;;;16.50;9.43;;;2.10;99.90;;;;;;5094642;28;20164;-69
2023/01/18 08:52:24;;;;;;;19.70;10.95;;;2.00;99.90;;;;;;5096176;28;20469;-70
2023/01/18 08:54:49;;;;;;;20.02;10.50;;;2.00;99.90;;;;;;5087728;28;20024;-70
2023/01/18 08:57:15;;;;;;;17.65;9.75;;;1.90;99.90;;;;;;5089613;28;20384;-70
2023/01/18 08:59:41;;;;;;;17.55;9.68;;;2.00;99.90;;;;;;5108810;28;20084;-69
2023/01/18 09:02:09;;;;;;;17.23;10.05;;;2.10;99.90;;;;;;5109203;28;20035;-70
2023/01/18 09:04:35;;;;;;;17.90;9.68;;;2.20;99.90;;;;;;5105731;28;20064;-70
2023/01/18 09:07:00;;;;;;;19.38;11.48;;;2.40;99.90;;;;;;5109210;28;20102;-69
2023/01/18 09:09:26;;;;;;;19.83;10.32;;;2.50;99.90;;;;;;5110458;28;20023;-69
2023/01/18 09:11:52;;;;;;;18.67;10.73;;;2.70;99.90;;;;;;5110147;28;20028;-69
2023/01/18 09:14:18;;;;;;;16.30;10.85;;;2.70;99.90;;;;;;5107710;28;20024;-70
2023/01/18 09:16:43;;;;;;;20.50;11.52;;;2.80;99.90;;;;;;5108679;28;20036;-70
2023/01/18 09:19:09;;;;;;;18.90;11.98;;;2.80;99.90;;;;;;5110033;28;20448;-70
2023/01/18 09:21:35;;;;;;;22.23;12.98;;;2.80;99.90;;;;;;5109943;28;20350;-70
2023/01/18 09:24:01;;;;;;;27.70;14.23;;;3.00;99.90;;;;;;5109286;28;20493;-70
2023/01/18 09:26:29;;;;;;;19.90;12.80;;;3.10;99.90;;;;;;5109446;28;20027;-70
2023/01/18 09:28:54;;;;;;;20.40;12.45;;;3.10;99.90;;;;;;5108267;28;20193;-70
2023/01/18 09:31:23;;;;;;;18.58;11.07;;;3.10;99.90;;;;;;5107619;28;20126;-70
2023/01/18 09:33:49;;;;;;;22.42;13.52;;;3.10;99.90;;;;;;5109569;28;20028;-70
2023/01/18 09:36:16;;;;;;;19.55;11.68;;;3.10;99.90;;;;;;5108306;28;20382;-70
2023/01/18 09:38:42;;;;;;;24.23;12.43;;;3.20;99.90;;;;;;5109205;28;20034;-70
2023/01/18 09:41:36;;;;;;;21.63;12.80;;;3.30;99.90;;;;;;5109682;28;20092;-70
2023/01/18 09:44:25;;;;;;;20.17;12.95;;;3.30;99.90;;;;;;5097733;28;20040;-70
2023/01/18 09:47:00;;;;;;;24.83;15.07;;;3.50;99.90;;;;;;5109963;28;20462;-70
2023/01/18 09:49:37;;;;;;;22.92;13.85;;;3.70;99.90;;;;;;5110037;28;20035;-70
2023/01/18 09:52:38;;;;;;;24.92;15.05;;;3.90;99.90;;;;;;5108454;28;20058;-70
2023/01/18 09:55:27;;;;;;;21.05;13.00;;;3.80;99.90;;;;;;5035439;28;20069;-70
2023/01/18 09:58:14;;;;;;;26.95;17.77;;;3.90;99.90;;;;;;5107774;28;20503;-70
2023/01/18 10:00:44;;;;;;;19.02;13.15;;;4.00;99.90;;;;;;5085412;27;20068;-70
2023/01/18 10:03:33;;;;;;;19.65;12.98;;;3.90;99.90;;;;;;5086167;28;20072;-70
2023/01/18 10:06:07;;;;;;;21.02;13.65;;;4.00;99.90;;;;;;5085214;28;20040;-70
2023/01/18 10:08:55;;;;;;;21.13;12.90;;;4.00;99.90;;;;;;5091685;28;20020;-70
2023/01/18 10:11:30;;;;;;;17.25;11.93;;;4.10;99.90;;;;;;5101058;28;20035;-71
2023/01/18 10:14:02;;;;;;;19.70;12.90;;;4.00;99.90;;;;;;5093637;28;20035;-70
2023/01/18 10:16:30;;;;;;;20.23;12.05;;;4.00;99.90;;;;;;5098528;28;20032;-70
2023/01/18 10:18:56;;;;;;;20.15;13.88;;;4.10;99.90;;;;;;5083963;28;20577;-70
2023/01/18 10:21:53;;;;;;;19.42;12.40;;;4.10;99.90;;;;;;5091212;28;20031;-70
2023/01/18 10:24:40;;;;;;;19.92;13.07;;;4.00;99.90;;;;;;5087855;28;20019;-71
2023/01/18 10:27:21;;;;;;;18.30;12.57;;;4.00;99.90;;;;;;5092274;28;20040;-70
2023/01/18 10:29:57;;;;;;;22.17;14.45;;;3.80;99.90;;;;;;5096067;28;20032;-70
2023/01/18 10:32:27;;;;;;;20.17;12.18;;;3.80;99.90;;;;;;5093646;28;20059;-70
2023/01/18 10:34:52;;;;;;;17.95;11.38;;;3.70;99.90;;;;;;5103348;28;20430;-70
2023/01/18 10:37:37;;;;;;;17.75;10.70;;;3.50;99.90;;;;;;5096615;28;20150;-70
2023/01/18 10:40:04;;;;;;;;;;;3.40;99.90;;;;;;5099889;28;20067;-70
2023/01/18 10:42:43;;;;;;;16.65;11.40;;;3.40;99.90;;;;;;5096816;28;20360;-70
2023/01/18 10:45:28;;;;;;;20.08;13.20;;;3.50;99.90;;;;;;5091389;28;20035;-70
2023/01/18 10:47:56;;;;;;;18.02;11.02;;;3.70;99.90;;;;;;5099725;28;20658;-70
2023/01/18 10:50:41;;;;;;;19.38;12.80;;;3.90;99.90;;;;;;5084043;28;20063;-70
2023/01/18 10:53:29;;;;;;;15.98;10.40;;;3.90;99.90;;;;;;5084706;28;20027;-70
2023/01/18 10:56:04;;;;;;;17.52;11.45;;;3.80;99.90;;;;;;5085464;28;20097;-70
2023/01/18 10:58:36;;;;;;;18.88;12.75;;;3.80;99.90;;;;;;5091484;28;20661;-70
2023/01/18 11:01:02;;;;;;;17.48;11.35;;;3.80;99.90;;;;;;5093193;28;20039;-70
2023/01/18 11:03:34;;;;;;;19.38;12.57;;;3.80;99.90;;;;;;5087874;28;20039;-70
2023/01/18 11:06:05;;;;;;;20.33;12.20;;;3.90;99.90;;;;;;5090539;28;20740;-70
2023/01/18 11:08:34;;;;;;;21.17;13.52;;;3.80;99.90;;;;;;5097920;28;20031;-70
2023/01/18 11:11:06;;;;;;;20.63;12.40;;;3.80;99.90;;;;;;5092600;28;20078;-70
2023/01/18 11:13:48;;;;;;;19.83;12.55;;;3.80;99.90;;;;;;5093790;28;20106;-70
2023/01/18 11:16:19;;;;;;;20.63;13.25;;;3.90;99.90;;;;;;5092183;28;20028;-70
2023/01/18 11:18:56;;;;;;;19.17;12.38;;;4.10;99.90;;;;;;5100270;28;20028;-70
2023/01/18 11:21:23;;;;;;;22.08;14.10;;;4.20;99.90;;;;;;5091644;28;20028;-70
2023/01/18 11:23:50;;;;;;;20.45;12.52;;;4.30;99.90;;;;;;5097636;28;20024;-70
2023/01/18 11:26:20;;;;;;;19.58;12.52;;;4.30;99.90;;;;;;5088411;28;20047;-70
2023/01/18 11:29:04;;;;;;;23.25;13.15;;;4.20;99.90;;;;;;5088250;28;20038;-70
2023/01/18 11:31:51;;;;;;;22.58;14.75;;;4.30;99.90;;;;;;5090475;28;20105;-70
2023/01/18 11:34:29;;;;;;;25.05;16.05;;;4.30;99.90;;;;;;5092666;28;20088;-70
2023/01/18 11:36:56;;;;;;;23.75;14.88;;;4.60;99.90;;;;;;5087619;28;20616;-70
2023/01/18 11:39:25;;;;;;;26.25;16.75;;;4.60;99.90;;;;;;5097265;28;20394;-70
2023/01/18 11:42:09;;;;;;;20.77;13.55;;;4.60;99.90;;;;;;5097578;28;20525;-70
2023/01/18 11:44:38;;;;;;;16.40;11.10;;;4.60;99.90;;;;;;5090601;28;20370;-70
2023/01/18 11:47:08;;;;;;;18.83;11.10;;;4.60;99.90;;;;;;5086249;28;20632;-70
2023/01/18 11:50:08;;;;;;;17.48;11.95;;;4.50;99.90;;;;;;5103522;28;20024;-70
2023/01/18 11:52:45;;;;;;;17.85;10.93;;;4.70;99.90;;;;;;5087974;28;20035;-70
2023/01/18 11:55:42;;;;;;;17.98;12.77;;;4.50;99.90;;;;;;5101415;28;20023;-70
2023/01/18 11:58:23;;;;;;;16.02;11.07;;;4.60;99.90;;;;;;5097437;28;20610;-70
2023/01/18 12:01:22;;;;;;;16.27;11.00;;;4.60;99.90;;;;;;5099329;28;20044;-70
2023/01/18 12:04:19;;;;;;;19.50;12.20;;;4.60;99.90;;;;;;5105516;28;20028;-70
2023/01/18 12:07:23;;;;;;;19.38;11.90;;;4.80;99.90;;;;;;5089264;28;20493;-72
2023/01/18 12:09:54;;;;;;;17.08;11.90;;;4.90;99.90;;;;;;5090441;28;20044;-71
2023/01/18 12:12:48;;;;;;;20.83;12.52;;;4.90;99.90;;;;;;5094318;28;20525;-70
2023/01/18 12:15:51;;;;;;;16.67;10.93;;;4.80;99.90;;;;;;5085187;28;20107;-71
2023/01/18 12:18:48;;;;;;;18.58;11.65;;;4.90;99.90;;;;;;5096018;28;20495;-71
2023/01/18 12:21:22;;;;;;;15.07;10.43;;;4.80;99.90;;;;;;5085029;28;20036;-71
2023/01/18 12:24:12;;;;;;;23.63;10.57;;;4.70;99.90;;;;;;5093535;28;20068;-71
2023/01/18 12:26:59;;;;;;;16.98;11.60;;;4.70;99.90;;;;;;5094646;28;20107;-71
2023/01/18 12:29:47;;;;;;;16.80;11.05;;;4.90;99.90;;;;;;5087405;28;20509;-71
2023/01/18 12:32:50;;;;;;;17.17;10.95;;;4.90;99.90;;;;;;5096829;28;20294;-71
2023/01/18 12:35:25;;;;;;;16.05;10.07;;;4.90;99.90;;;;;;5092650;28;20056;-72
2023/01/18 12:38:12;;;;;;;14.35;10.27;;;5.00;99.90;;;;;;5087098;28;20024;-71
2023/01/18 12:41:07;;;;;;;18.70;11.48;;;5.00;99.90;;;;;;5092867;28;20118;-71
2023/01/18 12:43:49;;;;;;;17.77;11.02;;;4.90;99.90;;;;;;5087930;28;20028;-71
2023/01/18 12:46:30;;;;;;;16.30;10.27;;;4.80;99.90;;;;;;5087755;28;20028;-71
2023/01/18 12:49:01;;;;;;;18.20;10.65;;;4.80;99.90;;;;;;5092147;28;20047;-71
2023/01/18 12:51:32;;;;;;;18.85;10.88;;;4.70;99.90;;;;;;5092232;28;20032;-71
2023/01/18 12:54:05;;;;;;;17.60;10.48;;;4.90;99.90;;;;;;5100093;28;20136;-71
2023/01/18 12:56:37;;;;;;;16.17;10.10;;;5.00;99.90;;;;;;5092826;28;20023;-71
2023/01/18 12:59:10;;;;;;;17.75;11.55;;;5.00;99.90;;;;;;5088954;28;20028;-71
2023/01/18 13:01:41;;;;;;;14.77;10.20;;;5.00;99.90;;;;;;5093196;28;20031;-71
2023/01/18 13:04:45;;;;;;;17.10;10.57;;;5.00;99.90;;;;;;5089087;28;20028;-71
2023/01/18 13:07:14;;;;;;;20.42;14.32;;;4.90;99.90;;;;;;5053640;28;20044;-71
2023/01/18 13:09:45;;;;;;;16.90;11.13;;;5.00;99.90;;;;;;5087133;28;20450;-71
2023/01/18 13:12:12;;;;;;;15.55;10.02;;;5.00;99.90;;;;;;5093183;28;20458;-72
2023/01/18 13:14:40;;;;;;;14.20;9.48;;;5.00;99.90;;;;;;5094262;28;20374;-70
2023/01/18 13:17:32;;;;;;;15.40;9.68;;;5.00;99.90;;;;;;5093213;28;20035;-70
2023/01/18 13:20:35;;;;;;;18.58;10.90;;;5.20;99.90;;;;;;5088920;28;20538;-69
2023/01/18 13:23:24;;;;;;;18.02;10.13;;;5.30;99.90;;;;;;5075954;28;20377;-70
2023/01/18 13:25:54;;;;;;;16.10;10.57;;;5.40;99.90;;;;;;5094577;28;20338;-70
2023/01/18 13:28:23;;;;;;;16.00;10.02;;;5.40;99.90;;;;;;5096145;28;20028;-70
2023/01/18 13:31:03;;;;;;;18.27;11.32;;;5.50;99.90;;;;;;5095877;28;20043;-70